Time;durP1;ratioP1;P1;durP2;ratioP2;P2;SDS_P1;SDS_P2;PMS_P1;PMS_P2;Temp;Humidity;BMP_temperature;BMP_pressure;BME280_temperature;BME280_humidity;BME280_pressure;Samples;Min_cycle;Max_cycle;Signal;HPM_P1;HPM_P2
2024/01/23 00:02:01;;;;;;;45.42;41.72;;;;;;;;;;4995193;28;20654;-44
2024/01/23 00:04:27;;;;;;;43.97;40.38;;;;;;;;;;4995301;28;20187;-43
2024/01/23 00:06:53;;;;;;;45.23;41.23;;;;;;;;;;4995350;28;20211;-44
2024/01/23 00:09:19;;;;;;;28.98;27.27;;;;;;;;;;4994940;28;20869;-44
2024/01/23 00:11:44;;;;;;;35.90;33.00;;;;;;;;;;4994980;28;20671;-44
2024/01/23 00:14:10;;;;;;;38.80;35.20;;;;;;;;;;4995052;28;20416;-43
2024/01/23 00:16:36;;;;;;;40.50;37.87;;;;;;;;;;4995028;28;20418;-44
2024/01/23 00:19:02;;;;;;;40.47;37.37;;;;;;;;;;4994729;28;20464;-44
2024/01/23 00:21:29;;;;;;;38.70;35.67;;;;;;;;;;4994918;28;20925;-44
2024/01/23 00:23:55;;;;;;;38.67;35.35;;;;;;;;;;4994931;28;20425;-44
2024/01/23 00:26:21;;;;;;;26.27;24.15;;;;;;;;;;4994931;28;20675;-44
2024/01/23 00:28:47;;;;;;;24.95;22.70;;;;;;;;;;4994691;28;20183;-44
2024/01/23 00:31:13;;;;;;;82.67;48.63;;;;;;;;;;4994558;28;20203;-44
2024/01/23 00:34:12;;;;;;;33.77;30.23;;;;;;;;;;4994226;28;20428;-43
2024/01/23 00:36:38;;;;;;;53.78;41.63;;;;;;;;;;4994593;28;20449;-43
2024/01/23 00:39:04;;;;;;;49.20;38.77;;;;;;;;;;4994461;28;20663;-43
2024/01/23 00:41:31;;;;;;;41.67;34.93;;;;;;;;;;4991486;28;20452;-43
2024/01/23 00:43:57;;;;;;;104.13;45.63;;;;;;;;;;4994523;28;20904;-43
2024/01/23 00:46:23;;;;;;;37.17;33.88;;;;;;;;;;4994574;28;20189;-43
2024/01/23 00:48:49;;;;;;;35.77;24.67;;;;;;;;;;4994154;28;20300;-43
2024/01/23 00:51:15;;;;;;;112.07;41.17;;;;;;;;;;4993252;28;20492;-43
2024/01/23 00:53:41;;;;;;;19.70;18.10;;;;;;;;;;4994422;28;20421;-43
2024/01/23 00:56:07;;;;;;;38.17;34.33;;;;;;;;;;4993128;28;20419;-43
2024/01/23 00:58:32;;;;;;;79.40;43.70;;;;;;;;;;4994349;28;20834;-43
2024/01/23 01:00:58;;;;;;;50.37;38.27;;;;;;;;;;4993882;28;20439;-43
2024/01/23 01:03:24;;;;;;;77.40;43.23;;;;;;;;;;4993798;28;20421;-43
2024/01/23 01:05:50;;;;;;;65.70;38.63;;;;;;;;;;4994181;28;20419;-43
2024/01/23 01:08:16;;;;;;;77.57;44.60;;;;;;;;;;4994324;28;20451;-43
2024/01/23 01:10:43;;;;;;;50.67;39.70;;;;;;;;;;4993652;28;20465;-44
2024/01/23 01:13:09;;;;;;;34.42;29.33;;;;;;;;;;4994092;28;20175;-44
2024/01/23 01:15:35;;;;;;;27.70;25.02;;;;;;;;;;4994453;28;20225;-43
2024/01/23 01:18:01;;;;;;;39.00;36.10;;;;;;;;;;4993900;28;20183;-44
2024/01/23 01:20:27;;;;;;;39.03;35.23;;;;;;;;;;4993490;28;20443;-44
2024/01/23 01:22:53;;;;;;;39.43;35.33;;;;;;;;;;4993813;28;20445;-44
2024/01/23 01:25:19;;;;;;;105.93;51.10;;;;;;;;;;4993830;28;20500;-43
2024/01/23 01:27:45;;;;;;;75.38;42.45;;;;;;;;;;4993834;28;20403;-43
2024/01/23 01:30:11;;;;;;;104.03;48.33;;;;;;;;;;4993255;28;20214;-43
2024/01/23 01:32:37;;;;;;;59.65;36.42;;;;;;;;;;4992135;28;21014;-44
2024/01/23 01:35:03;;;;;;;42.23;32.10;;;;;;;;;;4993662;28;20211;-44
2024/01/23 01:37:29;;;;;;;50.63;37.45;;;;;;;;;;4991090;28;20425;-43
2024/01/23 01:39:55;;;;;;;57.27;38.33;;;;;;;;;;4993344;28;20199;-43
2024/01/23 01:42:21;;;;;;;55.83;33.27;;;;;;;;;;4993291;28;20482;-43
2024/01/23 01:44:47;;;;;;;44.40;35.40;;;;;;;;;;4993521;28;20407;-43
2024/01/23 01:47:13;;;;;;;109.43;47.90;;;;;;;;;;4993533;28;20911;-43
2024/01/23 01:49:39;;;;;;;113.47;51.20;;;;;;;;;;4993074;28;20201;-43
2024/01/23 01:52:05;;;;;;;60.03;40.80;;;;;;;;;;5000951;28;20453;-44
2024/01/23 01:54:31;;;;;;;124.70;53.80;;;;;;;;;;4993307;28;20417;-43
2024/01/23 01:56:59;;;;;;;114.03;51.27;;;;;;;;;;4993335;28;20710;-44
2024/01/23 01:59:25;;;;;;;114.70;50.85;;;;;;;;;;4992758;28;20501;-44
2024/01/23 02:01:51;;;;;;;119.68;52.28;;;;;;;;;;4992964;28;20175;-43
2024/01/23 02:04:17;;;;;;;71.43;46.43;;;;;;;;;;4992172;28;20186;-43
2024/01/23 02:06:43;;;;;;;88.53;48.83;;;;;;;;;;4994399;28;20811;-44
2024/01/23 02:09:10;;;;;;;116.53;53.22;;;;;;;;;;4994043;28;20497;-44
2024/01/23 02:11:36;;;;;;;106.80;53.95;;;;;;;;;;4994175;28;20203;-44
2024/01/23 02:14:02;;;;;;;90.67;46.63;;;;;;;;;;4993714;28;20183;-44
2024/01/23 02:16:28;;;;;;;123.10;52.50;;;;;;;;;;4993813;28;20412;-45
2024/01/23 02:18:54;;;;;;;96.63;52.80;;;;;;;;;;4994468;28;20422;-44
2024/01/23 02:21:20;;;;;;;90.30;48.57;;;;;;;;;;4994418;28;20408;-44
2024/01/23 02:23:46;;;;;;;38.77;31.77;;;;;;;;;;4994328;28;20466;-45
2024/01/23 02:26:15;;;;;;;38.87;34.93;;;;;;;;;;4994400;28;20446;-44
2024/01/23 02:28:41;;;;;;;45.05;40.20;;;;;;;;;;4994384;28;20453;-44
2024/01/23 02:31:07;;;;;;;94.10;50.20;;;;;;;;;;4992465;28;20227;-44
2024/01/23 02:33:33;;;;;;;59.87;44.30;;;;;;;;;;4994343;28;20179;-44
2024/01/23 02:35:59;;;;;;;88.63;47.47;;;;;;;;;;4994186;28;20406;-44
2024/01/23 02:38:25;;;;;;;49.90;42.30;;;;;;;;;;4994015;28;20414;-44
2024/01/23 02:40:51;;;;;;;89.80;45.93;;;;;;;;;;4993650;28;20203;-44
2024/01/23 02:43:19;;;;;;;159.50;56.67;;;;;;;;;;4992836;28;20791;-44
2024/01/23 02:45:45;;;;;;;82.95;48.50;;;;;;;;;;4993245;28;20408;-44
2024/01/23 02:48:11;;;;;;;108.93;51.10;;;;;;;;;;4993723;28;20231;-44
2024/01/23 02:50:37;;;;;;;144.93;53.37;;;;;;;;;;4992844;28;20953;-44
2024/01/23 02:53:03;;;;;;;95.63;48.93;;;;;;;;;;4993449;28;20910;-43
2024/01/23 02:55:29;;;;;;;125.50;53.92;;;;;;;;;;4993235;28;20430;-44
2024/01/23 02:57:55;;;;;;;120.17;53.83;;;;;;;;;;4993457;28;20180;-44
2024/01/23 03:00:21;;;;;;;138.80;55.03;;;;;;;;;;4992887;28;20446;-45
2024/01/23 03:02:47;;;;;;;141.93;55.90;;;;;;;;;;4993329;28;20416;-43
2024/01/23 03:05:13;;;;;;;61.72;40.00;;;;;;;;;;4993012;28;20647;-45
2024/01/23 03:07:39;;;;;;;33.90;31.07;;;;;;;;;;4993336;28;20207;-44
2024/01/23 03:10:07;;;;;;;40.87;37.47;;;;;;;;;;4993455;28;20948;-43
2024/01/23 03:12:32;;;;;;;47.80;43.50;;;;;;;;;;4992911;28;20433;-43
2024/01/23 03:14:58;;;;;;;48.93;44.43;;;;;;;;;;4992759;28;20184;-43
2024/01/23 03:17:24;;;;;;;34.83;31.40;;;;;;;;;;4992933;28;20571;-45
2024/01/23 03:19:50;;;;;;;40.17;36.27;;;;;;;;;;4992918;28;20437;-45
2024/01/23 03:22:16;;;;;;;44.27;40.47;;;;;;;;;;4993048;28;20498;-44
2024/01/23 03:24:42;;;;;;;41.57;37.47;;;;;;;;;;4993133;28;20418;-45
2024/01/23 03:27:08;;;;;;;86.80;49.85;;;;;;;;;;4994147;28;20435;-44
2024/01/23 03:29:41;;;;;;;50.92;45.22;;;;;;;;;;4998600;28;20221;-45
2024/01/23 03:32:08;;;;;;;40.85;37.10;;;;;;;;;;4996810;28;20297;-43
2024/01/23 03:34:34;;;;;;;47.63;41.88;;;;;;;;;;4996710;28;20183;-44
2024/01/23 03:37:01;;;;;;;28.97;27.17;;;;;;;;;;4996922;28;20377;-45
2024/01/23 03:39:27;;;;;;;42.55;38.67;;;;;;;;;;4996391;28;20435;-44
2024/01/23 03:41:53;;;;;;;39.17;35.42;;;;;;;;;;4996916;28;20195;-43
2024/01/23 03:44:21;;;;;;;54.03;45.22;;;;;;;;;;4996634;28;20187;-44
2024/01/23 03:46:47;;;;;;;68.00;47.20;;;;;;;;;;4996483;28;20202;-44
2024/01/23 03:49:13;;;;;;;54.40;47.00;;;;;;;;;;4996402;28;20203;-44
2024/01/23 03:51:39;;;;;;;36.70;33.90;;;;;;;;;;4996385;28;20687;-45
2024/01/23 03:54:05;;;;;;;51.10;45.77;;;;;;;;;;4996421;28;20198;-44
2024/01/23 03:56:30;;;;;;;56.83;45.28;;;;;;;;;;4996374;28;20423;-44
2024/01/23 03:58:56;;;;;;;95.90;52.93;;;;;;;;;;4996072;28;20184;-43
2024/01/23 04:01:22;;;;;;;87.77;51.80;;;;;;;;;;4996438;28;20511;-44
2024/01/23 04:03:48;;;;;;;94.60;52.40;;;;;;;;;;4996481;28;20411;-43
2024/01/23 04:06:14;;;;;;;100.17;54.67;;;;;;;;;;4996537;28;21014;-43
2024/01/23 04:08:40;;;;;;;117.85;54.85;;;;;;;;;;4996010;28;20966;-45
2024/01/23 04:11:06;;;;;;;118.27;57.13;;;;;;;;;;4995739;28;20247;-45
2024/01/23 04:13:32;;;;;;;113.13;54.50;;;;;;;;;;4995666;28;20469;-45
2024/01/23 04:15:58;;;;;;;107.50;55.25;;;;;;;;;;4996105;28;20950;-44
2024/01/23 04:18:24;;;;;;;144.77;55.63;;;;;;;;;;4996250;28;20224;-43
2024/01/23 04:20:50;;;;;;;122.17;52.90;;;;;;;;;;4995755;28;20465;-43
2024/01/23 04:23:16;;;;;;;121.83;54.87;;;;;;;;;;4995864;28;20773;-43
2024/01/23 04:25:42;;;;;;;127.80;56.23;;;;;;;;;;4995967;28;20475;-44
2024/01/23 04:28:08;;;;;;;134.50;54.53;;;;;;;;;;4995835;28;20515;-45
2024/01/23 04:30:34;;;;;;;132.50;59.30;;;;;;;;;;4995328;28;20464;-43
2024/01/23 04:33:00;;;;;;;143.10;56.73;;;;;;;;;;4995882;28;20415;-43
2024/01/23 04:35:26;;;;;;;150.80;59.10;;;;;;;;;;4995441;28;20778;-44
2024/01/23 04:37:52;;;;;;;133.67;56.40;;;;;;;;;;4995013;28;20790;-43
2024/01/23 04:40:18;;;;;;;116.90;53.35;;;;;;;;;;4995443;28;20795;-44
2024/01/23 04:42:44;;;;;;;105.63;54.90;;;;;;;;;;4995201;28;20212;-45
2024/01/23 04:45:10;;;;;;;142.20;57.00;;;;;;;;;;4995342;28;20186;-45
2024/01/23 04:47:36;;;;;;;145.77;58.17;;;;;;;;;;4995240;28;20423;-44
2024/01/23 04:50:02;;;;;;;151.77;55.73;;;;;;;;;;4994942;28;20562;-45
2024/01/23 04:52:28;;;;;;;146.07;55.80;;;;;;;;;;4994781;28;20808;-44
2024/01/23 04:54:54;;;;;;;155.63;56.67;;;;;;;;;;4994967;28;20187;-43
2024/01/23 04:57:20;;;;;;;149.70;58.37;;;;;;;;;;4995026;28;20431;-44
2024/01/23 04:59:46;;;;;;;121.63;55.27;;;;;;;;;;4994531;28;20420;-43
2024/01/23 05:02:12;;;;;;;131.70;57.50;;;;;;;;;;4995341;28;20789;-43
2024/01/23 05:04:39;;;;;;;160.35;59.45;;;;;;;;;;4994967;28;20425;-44
2024/01/23 05:07:05;;;;;;;167.93;63.13;;;;;;;;;;4994778;28;20177;-45
2024/01/23 05:09:31;;;;;;;156.63;62.60;;;;;;;;;;4994496;28;20283;-45
2024/01/23 05:12:00;;;;;;;101.63;52.20;;;;;;;;;;4994650;28;20468;-44
2024/01/23 05:14:26;;;;;;;101.45;53.75;;;;;;;;;;4994945;28;20190;-44
2024/01/23 05:16:52;;;;;;;151.10;65.47;;;;;;;;;;4992657;28;20176;-44
2024/01/23 05:19:18;;;;;;;133.63;56.30;;;;;;;;;;4993711;28;20455;-46
2024/01/23 05:21:44;;;;;;;148.93;56.67;;;;;;;;;;4994971;28;20169;-45
2024/01/23 05:24:10;;;;;;;131.48;53.42;;;;;;;;;;4995105;28;20421;-45
2024/01/23 05:26:36;;;;;;;174.75;60.30;;;;;;;;;;4995235;28;20186;-45
2024/01/23 05:29:02;;;;;;;166.60;63.20;;;;;;;;;;4995182;28;20186;-45
2024/01/23 05:31:28;;;;;;;158.97;58.33;;;;;;;;;;4995320;28;20469;-44
2024/01/23 05:33:54;;;;;;;150.37;57.10;;;;;;;;;;4995163;28;20492;-45
2024/01/23 05:36:20;;;;;;;132.90;54.55;;;;;;;;;;4994701;28;20417;-44
2024/01/23 05:38:46;;;;;;;132.07;53.90;;;;;;;;;;4994595;28;20258;-43
2024/01/23 05:41:12;;;;;;;107.30;51.30;;;;;;;;;;4994484;28;20434;-44
2024/01/23 05:43:38;;;;;;;102.73;52.03;;;;;;;;;;4994614;28;20205;-44
2024/01/23 05:46:04;;;;;;;146.57;57.57;;;;;;;;;;4995091;28;20426;-45
2024/01/23 05:48:30;;;;;;;147.52;57.22;;;;;;;;;;4994689;28;20907;-44
2024/01/23 05:50:56;;;;;;;166.83;58.93;;;;;;;;;;4996395;28;20213;-45
2024/01/23 05:53:22;;;;;;;157.85;58.22;;;;;;;;;;4994368;28;20418;-43
2024/01/23 05:55:48;;;;;;;155.55;60.17;;;;;;;;;;4994206;28;20672;-44
2024/01/23 05:58:14;;;;;;;132.40;55.90;;;;;;;;;;4994284;28;20183;-44
2024/01/23 06:00:40;;;;;;;98.33;53.40;;;;;;;;;;4993511;28;20879;-43
2024/01/23 06:03:06;;;;;;;122.90;53.67;;;;;;;;;;4994331;28;20425;-44
2024/01/23 06:05:32;;;;;;;145.47;55.70;;;;;;;;;;4993771;28;20426;-43
2024/01/23 06:07:58;;;;;;;140.48;56.75;;;;;;;;;;4993991;28;20424;-44
2024/01/23 06:10:24;;;;;;;92.00;52.17;;;;;;;;;;4994595;28;20261;-44
2024/01/23 06:12:50;;;;;;;110.60;53.55;;;;;;;;;;4994326;28;20664;-45
2024/01/23 06:15:16;;;;;;;113.70;52.13;;;;;;;;;;4994661;28;20172;-44
2024/01/23 06:17:42;;;;;;;128.43;55.20;;;;;;;;;;4994642;28;20412;-45
2024/01/23 06:20:08;;;;;;;159.23;57.93;;;;;;;;;;4993992;28;20885;-46
2024/01/23 06:22:34;;;;;;;166.25;60.20;;;;;;;;;;4994196;28;20425;-44
2024/01/23 06:25:04;;;;;;;155.57;56.28;;;;;;;;;;4994023;28;20237;-44
2024/01/23 06:27:30;;;;;;;163.00;55.42;;;;;;;;;;4994407;28;20178;-44
2024/01/23 06:29:56;;;;;;;169.07;58.03;;;;;;;;;;4993675;28;20206;-44
2024/01/23 06:32:22;;;;;;;133.20;53.97;;;;;;;;;;4994119;28;20185;-43
2024/01/23 06:34:48;;;;;;;107.43;51.13;;;;;;;;;;4994072;28;20409;-43
2024/01/23 06:37:14;;;;;;;131.73;50.43;;;;;;;;;;4994392;28;20453;-45
2024/01/23 06:39:40;;;;;;;159.90;55.85;;;;;;;;;;4994332;28;20912;-44
2024/01/23 06:42:06;;;;;;;140.47;48.47;;;;;;;;;;4994074;28;20229;-44
2024/01/23 06:44:32;;;;;;;50.30;39.73;;;;;;;;;;4994230;28;20418;-45
2024/01/23 06:46:58;;;;;;;88.85;49.03;;;;;;;;;;4994224;28;20416;-43
2024/01/23 06:49:24;;;;;;;127.67;51.27;;;;;;;;;;4993683;28;20264;-43
2024/01/23 06:51:50;;;;;;;143.93;52.17;;;;;;;;;;4993894;28;20566;-44
2024/01/23 06:54:16;;;;;;;51.23;40.70;;;;;;;;;;4994303;28;20404;-43
2024/01/23 06:56:41;;;;;;;104.47;48.10;;;;;;;;;;4994152;28;20415;-43
2024/01/23 06:59:08;;;;;;;100.60;48.37;;;;;;;;;;4993695;28;20414;-45
2024/01/23 07:01:34;;;;;;;64.00;42.30;;;;;;;;;;4993663;28;20432;-45
2024/01/23 07:04:00;;;;;;;64.30;46.33;;;;;;;;;;4994324;28;20181;-43
2024/01/23 07:06:26;;;;;;;63.07;44.50;;;;;;;;;;4992976;28;20191;-44
2024/01/23 07:08:53;;;;;;;73.43;47.50;;;;;;;;;;4993631;28;20503;-45
2024/01/23 07:11:20;;;;;;;138.68;54.88;;;;;;;;;;4994064;28;20449;-42
2024/01/23 07:13:45;;;;;;;138.85;53.92;;;;;;;;;;4993970;28;20186;-44
2024/01/23 07:16:11;;;;;;;165.43;55.63;;;;;;;;;;4994766;28;20642;-44
2024/01/23 07:18:38;;;;;;;170.43;56.13;;;;;;;;;;4990733;28;20464;-43
2024/01/23 07:21:04;;;;;;;154.10;55.63;;;;;;;;;;4997658;28;20440;-44
2024/01/23 07:23:30;;;;;;;132.65;51.33;;;;;;;;;;4994144;28;20259;-44
2024/01/23 07:25:58;;;;;;;150.37;53.70;;;;;;;;;;4994296;28;20220;-45
2024/01/23 07:28:24;;;;;;;162.45;58.65;;;;;;;;;;4994531;28;20795;-44
2024/01/23 07:30:50;;;;;;;159.00;55.50;;;;;;;;;;4993696;28;20662;-44
2024/01/23 07:33:16;;;;;;;150.90;53.92;;;;;;;;;;4994470;28;20549;-45
2024/01/23 07:35:42;;;;;;;148.03;55.60;;;;;;;;;;4994202;28;20257;-45
2024/01/23 07:38:10;;;;;;;157.85;55.58;;;;;;;;;;4994254;28;20413;-44
2024/01/23 07:40:37;;;;;;;166.70;57.33;;;;;;;;;;4993699;28;20250;-45
2024/01/23 07:43:03;;;;;;;147.07;54.35;;;;;;;;;;4993550;28;20229;-43
2024/01/23 07:45:29;;;;;;;166.77;59.13;;;;;;;;;;4994041;28;20190;-43
2024/01/23 07:47:55;;;;;;;169.30;58.05;;;;;;;;;;4994252;28;20171;-43
2024/01/23 07:50:21;;;;;;;173.30;60.28;;;;;;;;;;4993245;28;20204;-43
2024/01/23 07:52:47;;;;;;;172.50;58.33;;;;;;;;;;4993994;28;20190;-44
2024/01/23 07:55:14;;;;;;;166.82;58.45;;;;;;;;;;4992306;28;20505;-45
2024/01/23 07:57:40;;;;;;;158.30;55.55;;;;;;;;;;4993688;28;20552;-43
2024/01/23 08:00:07;;;;;;;170.05;58.70;;;;;;;;;;4993481;28;20200;-45
2024/01/23 08:02:33;;;;;;;179.13;64.00;;;;;;;;;;4976956;28;20197;-43
2024/01/23 08:04:59;;;;;;;180.07;59.05;;;;;;;;;;4994566;28;20181;-44
2024/01/23 08:07:25;;;;;;;174.63;56.83;;;;;;;;;;4994440;28;20183;-44
2024/01/23 08:09:51;;;;;;;184.40;58.73;;;;;;;;;;4993594;28;20201;-43
2024/01/23 08:12:17;;;;;;;181.40;56.35;;;;;;;;;;4993679;28;20515;-44
2024/01/23 08:14:44;;;;;;;179.82;58.50;;;;;;;;;;4997090;28;20870;-43
2024/01/23 08:17:11;;;;;;;172.35;57.10;;;;;;;;;;4997330;28;20177;-43
2024/01/23 08:19:39;;;;;;;174.63;57.22;;;;;;;;;;4997042;28;20217;-44
2024/01/23 08:22:05;;;;;;;180.18;59.95;;;;;;;;;;4997135;28;20178;-44
2024/01/23 08:24:31;;;;;;;178.60;59.27;;;;;;;;;;4997012;28;20182;-45
2024/01/23 08:26:58;;;;;;;194.98;60.40;;;;;;;;;;4996976;28;20441;-45
2024/01/23 08:29:23;;;;;;;209.85;64.75;;;;;;;;;;4997163;28;20210;-43
2024/01/23 08:31:50;;;;;;;217.67;61.40;;;;;;;;;;4996570;28;20305;-44
2024/01/23 08:34:16;;;;;;;218.63;62.75;;;;;;;;;;4997098;28;20504;-44
2024/01/23 08:36:42;;;;;;;219.63;64.00;;;;;;;;;;4997264;28;20182;-44
2024/01/23 08:39:08;;;;;;;116.73;52.60;;;;;;;;;;4996943;28;20515;-45
2024/01/23 08:41:34;;;;;;;95.43;52.93;;;;;;;;;;4996307;28;20488;-43
2024/01/23 08:44:00;;;;;;;118.65;52.15;;;;;;;;;;4996685;28;20417;-43
2024/01/23 08:46:26;;;;;;;180.02;61.90;;;;;;;;;;4993034;28;20713;-43
2024/01/23 08:48:52;;;;;;;150.80;57.53;;;;;;;;;;4995794;28;20196;-44
2024/01/23 08:51:18;;;;;;;220.07;63.72;;;;;;;;;;4996551;28;20587;-43
2024/01/23 08:53:44;;;;;;;221.05;64.90;;;;;;;;;;4996120;28;20183;-42
2024/01/23 08:56:10;;;;;;;224.30;69.73;;;;;;;;;;4994379;28;20594;-43
2024/01/23 08:58:36;;;;;;;214.30;67.30;;;;;;;;;;4994142;28;20412;-42
2024/01/23 09:01:02;;;;;;;41.30;37.25;;;;;;;;;;4994069;28;20439;-43
2024/01/23 09:03:28;;;;;;;94.70;55.57;;;;;;;;;;4994066;28;20183;-42
2024/01/23 09:05:54;;;;;;;70.23;41.17;;;;;;;;;;4994156;28;20943;-43
2024/01/23 09:08:20;;;;;;;125.27;57.37;;;;;;;;;;4994102;28;20419;-42
2024/01/23 09:10:49;;;;;;;141.20;61.10;;;;;;;;;;4993484;28;20821;-42
2024/01/23 09:13:15;;;;;;;141.48;62.60;;;;;;;;;;4993965;28;20230;-42
2024/01/23 09:15:41;;;;;;;111.93;50.00;;;;;;;;;;4994261;28;20272;-43
2024/01/23 09:18:07;;;;;;;40.93;37.40;;;;;;;;;;4993677;28;20465;-43
2024/01/23 09:20:33;;;;;;;34.17;31.52;;;;;;;;;;4988156;28;20458;-43
2024/01/23 09:22:59;;;;;;;42.07;37.97;;;;;;;;;;4991933;28;20182;-42
2024/01/23 09:25:25;;;;;;;37.93;35.53;;;;;;;;;;4992166;28;20469;-43
2024/01/23 09:27:51;;;;;;;68.05;53.70;;;;;;;;;;4992006;28;20412;-43
2024/01/23 09:30:18;;;;;;;44.33;39.93;;;;;;;;;;4991867;28;20259;-44
2024/01/23 09:32:44;;;;;;;137.15;62.08;;;;;;;;;;4993768;28;20412;-43
2024/01/23 09:35:13;;;;;;;74.40;54.97;;;;;;;;;;4993775;28;20263;-43
2024/01/23 09:37:39;;;;;;;30.27;27.80;;;;;;;;;;4993750;28;20196;-43
2024/01/23 09:40:08;;;;;;;46.90;42.93;;;;;;;;;;4993517;28;20200;-42
2024/01/23 09:42:35;;;;;;;48.05;43.28;;;;;;;;;;4993738;28;20423;-42
2024/01/23 09:45:04;;;;;;;51.25;46.53;;;;;;;;;;4993775;28;20179;-42
2024/01/23 09:47:30;;;;;;;49.28;44.85;;;;;;;;;;4993628;28;20169;-42
2024/01/23 09:49:56;;;;;;;50.77;46.73;;;;;;;;;;4993365;28;20204;-42
2024/01/23 09:52:22;;;;;;;52.03;47.67;;;;;;;;;;4993441;28;20477;-43
2024/01/23 09:54:48;;;;;;;51.10;46.60;;;;;;;;;;4993734;28;20531;-42
2024/01/23 09:57:14;;;;;;;55.20;50.40;;;;;;;;;;4992407;28;20500;-43
2024/01/23 09:59:40;;;;;;;53.87;49.27;;;;;;;;;;4992876;28;20894;-42
2024/01/23 10:02:08;;;;;;;49.13;45.23;;;;;;;;;;4993233;28;20397;-42
2024/01/23 10:04:34;;;;;;;52.40;47.87;;;;;;;;;;4993268;28;20434;-43
2024/01/23 10:07:07;;;;;;;52.17;48.07;;;;;;;;;;4993341;28;20411;-42
2024/01/23 10:09:33;;;;;;;48.33;45.03;;;;;;;;;;4992806;28;20927;-43
2024/01/23 10:11:59;;;;;;;49.10;45.40;;;;;;;;;;4992774;28;20490;-42
2024/01/23 10:14:25;;;;;;;50.63;46.93;;;;;;;;;;4993085;28;20465;-42
2024/01/23 10:16:51;;;;;;;51.13;47.23;;;;;;;;;;4993182;28;20403;-43
2024/01/23 10:19:17;;;;;;;49.93;46.30;;;;;;;;;;4992879;28;21038;-43
2024/01/23 10:21:43;;;;;;;48.83;45.33;;;;;;;;;;4992954;28;20884;-45
2024/01/23 10:24:09;;;;;;;42.00;38.70;;;;;;;;;;4993167;28;20820;-42
2024/01/23 10:26:35;;;;;;;44.63;41.50;;;;;;;;;;4992729;28;20451;-42
2024/01/23 10:29:02;;;;;;;47.20;43.00;;;;;;;;;;4992780;28;20844;-42
2024/01/23 10:31:28;;;;;;;52.43;47.53;;;;;;;;;;4992801;28;20459;-42
2024/01/23 10:33:56;;;;;;;50.87;45.77;;;;;;;;;;4991230;28;20423;-44
2024/01/23 10:36:22;;;;;;;54.37;49.27;;;;;;;;;;4992450;28;20416;-43
2024/01/23 10:38:50;;;;;;;60.87;55.23;;;;;;;;;;4992139;28;20412;-43
2024/01/23 10:41:18;;;;;;;53.13;47.93;;;;;;;;;;4992174;28;20440;-43
2024/01/23 10:43:46;;;;;;;53.23;48.20;;;;;;;;;;4991272;28;20464;-42
2024/01/23 10:46:12;;;;;;;51.80;47.20;;;;;;;;;;4992417;28;20427;-42
2024/01/23 10:48:39;;;;;;;52.30;47.70;;;;;;;;;;4992414;28;20451;-43
2024/01/23 10:51:17;;;;;;;51.87;47.53;;;;;;;;;;4992224;28;20472;-42
2024/01/23 10:53:57;;;;;;;51.90;47.50;;;;;;;;;;4992404;28;20412;-42
2024/01/23 10:56:30;;;;;;;51.37;47.07;;;;;;;;;;4992522;28;20408;-43
2024/01/23 10:59:02;;;;;;;51.70;47.20;;;;;;;;;;4992268;28;20829;-43
2024/01/23 11:01:33;;;;;;;52.30;47.90;;;;;;;;;;4992417;28;20895;-42
2024/01/23 11:04:00;;;;;;;51.20;46.73;;;;;;;;;;4992276;28;20487;-43
2024/01/23 11:06:27;;;;;;;50.70;46.40;;;;;;;;;;4992513;28;20503;-42
2024/01/23 11:09:07;;;;;;;52.13;47.73;;;;;;;;;;4992162;28;20474;-43
2024/01/23 11:11:39;;;;;;;53.20;48.90;;;;;;;;;;4991685;28;20959;-42
2024/01/23 11:14:10;;;;;;;50.97;46.97;;;;;;;;;;4992405;28;20420;-42
2024/01/23 11:16:36;;;;;;;53.53;49.23;;;;;;;;;;4992144;28;20443;-42
2024/01/23 11:19:02;;;;;;;55.33;50.83;;;;;;;;;;4991846;28;20444;-43
2024/01/23 11:21:28;;;;;;;53.17;48.87;;;;;;;;;;4992119;28;20423;-43
2024/01/23 11:24:01;;;;;;;48.87;44.93;;;;;;;;;;4992143;28;20424;-43
2024/01/23 11:26:27;;;;;;;54.77;50.43;;;;;;;;;;4992290;28;20474;-42
2024/01/23 11:28:54;;;;;;;54.80;50.50;;;;;;;;;;4989088;28;20426;-43
2024/01/23 11:31:24;;;;;;;50.73;46.53;;;;;;;;;;4991432;28;20496;-42
2024/01/23 11:33:54;;;;;;;51.37;47.10;;;;;;;;;;4992204;28;20418;-42
2024/01/23 11:36:23;;;;;;;51.67;47.37;;;;;;;;;;4992026;28;20912;-43
2024/01/23 11:38:50;;;;;;;53.30;48.80;;;;;;;;;;4991939;28;20442;-43
2024/01/23 11:41:23;;;;;;;52.63;48.13;;;;;;;;;;4992167;28;20852;-43
2024/01/23 11:43:55;;;;;;;25.93;24.23;;;;;;;;;;4991885;28;20428;-42
2024/01/23 11:46:23;;;;;;;31.42;29.63;;;;;;;;;;4992215;28;20419;-42
2024/01/23 11:48:49;;;;;;;30.97;29.03;;;;;;;;;;4994088;28;20164;-42
2024/01/23 11:51:15;;;;;;;36.45;33.60;;;;;;;;;;4995944;28;20469;-42
2024/01/23 11:53:42;;;;;;;48.15;44.10;;;;;;;;;;4996542;28;20214;-42
2024/01/23 11:56:08;;;;;;;49.10;44.87;;;;;;;;;;4995809;28;20183;-42
2024/01/23 11:58:34;;;;;;;49.10;44.50;;;;;;;;;;4995745;28;20417;-42
2024/01/23 12:01:01;;;;;;;54.70;49.87;;;;;;;;;;4994630;28;20601;-42
2024/01/23 12:03:28;;;;;;;35.80;33.22;;;;;;;;;;4994888;28;20715;-42
2024/01/23 12:05:54;;;;;;;59.58;47.53;;;;;;;;;;4995531;28;20185;-43
2024/01/23 12:08:20;;;;;;;22.83;21.50;;;;;;;;;;4995671;28;20619;-42
2024/01/23 12:10:47;;;;;;;31.37;29.07;;;;;;;;;;4995361;28;20524;-43
2024/01/23 12:13:13;;;;;;;30.75;28.80;;;;;;;;;;4995541;28;20422;-43
2024/01/23 12:15:39;;;;;;;52.17;47.40;;;;;;;;;;4995118;28;20263;-43
2024/01/23 12:18:05;;;;;;;48.90;44.90;;;;;;;;;;4995227;28;20461;-43
2024/01/23 12:20:31;;;;;;;45.30;41.63;;;;;;;;;;4994806;28;20435;-43
2024/01/23 12:22:57;;;;;;;54.93;48.20;;;;;;;;;;4995225;28;20598;-42
2024/01/23 12:25:23;;;;;;;117.18;57.80;;;;;;;;;;4994814;28;20419;-45
2024/01/23 12:27:49;;;;;;;156.07;56.73;;;;;;;;;;4995152;28;20639;-43
2024/01/23 12:30:15;;;;;;;135.57;59.22;;;;;;;;;;4994869;28;20456;-42
2024/01/23 12:32:45;;;;;;;64.05;46.05;;;;;;;;;;4994961;28;20186;-42
2024/01/23 12:35:11;;;;;;;62.80;52.80;;;;;;;;;;4995313;28;20712;-42
2024/01/23 12:37:39;;;;;;;105.72;58.42;;;;;;;;;;4995056;28;20178;-42
2024/01/23 12:40:09;;;;;;;55.58;50.20;;;;;;;;;;4994571;28;20256;-42
2024/01/23 12:42:43;;;;;;;30.15;28.30;;;;;;;;;;4995070;28;20202;-42
2024/01/23 12:45:10;;;;;;;26.63;25.00;;;;;;;;;;4995180;28;20176;-44
2024/01/23 12:47:37;;;;;;;25.83;24.20;;;;;;;;;;4994643;28;20616;-43
2024/01/23 12:50:03;;;;;;;74.25;48.13;;;;;;;;;;4994504;28;20194;-42
2024/01/23 12:52:30;;;;;;;137.60;62.38;;;;;;;;;;4994264;28;20232;-42
2024/01/23 12:54:56;;;;;;;95.45;51.40;;;;;;;;;;4994998;28;20601;-41
2024/01/23 12:57:22;;;;;;;59.03;50.47;;;;;;;;;;4993489;28;20181;-42
2024/01/23 12:59:48;;;;;;;191.30;70.75;;;;;;;;;;4994096;28;20221;-42
2024/01/23 13:02:15;;;;;;;104.25;56.42;;;;;;;;;;4994360;28;20185;-42
2024/01/23 13:04:40;;;;;;;136.38;61.38;;;;;;;;;;4994267;28;20196;-42
2024/01/23 13:07:08;;;;;;;145.83;64.47;;;;;;;;;;4993829;28;20181;-43
2024/01/23 13:09:34;;;;;;;109.00;55.35;;;;;;;;;;4994014;28;20432;-42
2024/01/23 13:12:00;;;;;;;183.00;69.40;;;;;;;;;;4994241;28;20277;-42
2024/01/23 13:14:26;;;;;;;141.73;60.27;;;;;;;;;;4994192;28;20400;-43
2024/01/23 13:16:52;;;;;;;49.70;42.27;;;;;;;;;;4994060;28;20433;-43
2024/01/23 13:19:19;;;;;;;91.75;47.40;;;;;;;;;;4993753;28;20436;-42
2024/01/23 13:21:45;;;;;;;31.63;29.27;;;;;;;;;;4993789;28;20238;-42
2024/01/23 13:24:11;;;;;;;36.85;34.22;;;;;;;;;;4994040;28;20181;-43
2024/01/23 13:26:37;;;;;;;58.53;42.70;;;;;;;;;;4992614;28;20243;-42
2024/01/23 13:29:04;;;;;;;103.25;51.67;;;;;;;;;;4994748;28;20409;-45
2024/01/23 13:31:34;;;;;;;49.22;44.88;;;;;;;;;;4994791;28;20196;-44
2024/01/23 13:34:00;;;;;;;42.30;39.03;;;;;;;;;;4994753;28;20182;-44
2024/01/23 13:36:26;;;;;;;48.50;44.30;;;;;;;;;;4994745;28;20264;-45
2024/01/23 13:38:53;;;;;;;51.15;47.08;;;;;;;;;;4994201;28;21136;-45
2024/01/23 13:41:19;;;;;;;36.85;34.17;;;;;;;;;;4994353;28;20286;-46
2024/01/23 13:43:46;;;;;;;37.30;34.05;;;;;;;;;;4994570;28;20258;-44
2024/01/23 13:46:11;;;;;;;39.08;35.70;;;;;;;;;;4994731;28;20173;-45
2024/01/23 13:48:38;;;;;;;48.33;37.87;;;;;;;;;;4994432;28;20185;-43
2024/01/23 13:51:04;;;;;;;39.00;35.38;;;;;;;;;;4993992;28;20545;-44
2024/01/23 13:53:30;;;;;;;50.15;45.55;;;;;;;;;;4995150;28;20180;-44
2024/01/23 13:55:56;;;;;;;47.25;43.08;;;;;;;;;;4994806;28;20549;-44
2024/01/23 13:58:22;;;;;;;48.83;43.97;;;;;;;;;;4993665;28;20205;-44
2024/01/23 14:00:48;;;;;;;24.70;23.30;;;;;;;;;;4985690;28;20232;-44
2024/01/23 14:03:14;;;;;;;29.90;28.10;;;;;;;;;;4994216;28;20180;-43
2024/01/23 14:05:40;;;;;;;22.33;20.97;;;;;;;;;;4994616;28;21018;-45
2024/01/23 14:08:07;;;;;;;22.95;21.50;;;;;;;;;;4994629;28;20415;-45